sensor_id;sensor_type;location;lat;lon;timestamp;pressure;altitude;pressure_sealevel;temperature;humidity
22872;BME280;11603;44.910;8.630;2022-09-09T00:02:23;100108.72;;;24.22;100.00
22872;BME280;11603;44.910;8.630;2022-09-09T00:05:04;100119.38;;;24.17;100.00
22872;BME280;11603;44.910;8.630;2022-09-09T00:07:43;100122.28;;;24.16;100.00
22872;BME280;11603;44.910;8.630;2022-09-09T00:10:34;100114.56;;;24.19;100.00
22872;BME280;11603;44.910;8.630;2022-09-09T00:13:26;100118.31;;;24.18;100.00
22872;BME280;11603;44.910;8.630;2022-09-09T00:16:37;100110.03;;;24.12;100.00
22872;BME280;11603;44.910;8.630;2022-09-09T00:19:00;100105.16;;;24.07;100.00
22872;BME280;11603;44.910;8.630;2022-09-09T00:21:35;100103.19;;;24.01;100.00
22872;BME280;11603;44.910;8.630;2022-09-09T00:24:09;100095.09;;;23.93;100.00
22872;BME280;11603;44.910;8.630;2022-09-09T00:26:45;100096.72;;;23.87;100.00
22872;BME280;11603;44.910;8.630;2022-09-09T00:29:27;100090.38;;;23.80;100.00
22872;BME280;11603;44.910;8.630;2022-09-09T00:32:00;100088.75;;;23.71;100.00
22872;BME280;11603;44.910;8.630;2022-09-09T00:34:30;100094.53;;;23.61;100.00
22872;BME280;11603;44.910;8.630;2022-09-09T00:36:57;100090.50;;;23.57;100.00
22872;BME280;11603;44.910;8.630;2022-09-09T00:42:23;100081.94;;;23.46;100.00
22872;BME280;11603;44.910;8.630;2022-09-09T00:44:59;100075.16;;;23.42;100.00
22872;BME280;11603;44.910;8.630;2022-09-09T00:50:09;100074.03;;;23.36;100.00
22872;BME280;11603;44.910;8.630;2022-09-09T00:57:53;100062.38;;;23.28;100.00
22872;BME280;11603;44.910;8.630;2022-09-09T01:00:27;100060.22;;;23.23;100.00
22872;BME280;11603;44.910;8.630;2022-09-09T01:03:16;100060.41;;;23.21;100.00
22872;BME280;11603;44.910;8.630;2022-09-09T01:11:25;100051.75;;;23.18;100.00
22872;BME280;11603;44.910;8.630;2022-09-09T01:13:58;100052.97;;;23.15;100.00
22872;BME280;11603;44.910;8.630;2022-09-09T01:16:29;100050.41;;;23.14;100.00
22872;BME280;11603;44.910;8.630;2022-09-09T01:18:57;100063.22;;;23.13;100.00
22872;BME280;11603;44.910;8.630;2022-09-09T01:24:29;100065.13;;;23.13;100.00
22872;BME280;11603;44.910;8.630;2022-09-09T01:27:10;100063.78;;;23.09;100.00
22872;BME280;11603;44.910;8.630;2022-09-09T01:29:36;100068.50;;;23.15;100.00
22872;BME280;11603;44.910;8.630;2022-09-09T01:32:41;100069.44;;;23.22;100.00
22872;BME280;11603;44.910;8.630;2022-09-09T01:35:13;100067.25;;;23.32;100.00
22872;BME280;11603;44.910;8.630;2022-09-09T01:37:41;100069.69;;;23.42;100.00
22872;BME280;11603;44.910;8.630;2022-09-09T01:40:07;100070.34;;;23.44;100.00
22872;BME280;11603;44.910;8.630;2022-09-09T01:42:34;100075.16;;;23.42;100.00
22872;BME280;11603;44.910;8.630;2022-09-09T01:44:59;100073.19;;;23.36;100.00
22872;BME280;11603;44.910;8.630;2022-09-09T01:47:25;100069.81;;;23.34;100.00
22872;BME280;11603;44.910;8.630;2022-09-09T01:50:04;100077.06;;;23.27;100.00
22872;BME280;11603;44.910;8.630;2022-09-09T01:52:35;100076.88;;;23.28;100.00
22872;BME280;11603;44.910;8.630;2022-09-09T01:55:02;100079.09;;;23.24;100.00
22872;BME280;11603;44.910;8.630;2022-09-09T01:57:50;100068.13;;;23.18;100.00
22872;BME280;11603;44.910;8.630;2022-09-09T02:00:20;100077.06;;;23.27;100.00
22872;BME280;11603;44.910;8.630;2022-09-09T02:03:02;100078.84;;;23.34;100.00
22872;BME280;11603;44.910;8.630;2022-09-09T02:05:38;100076.56;;;23.38;100.00
22872;BME280;11603;44.910;8.630;2022-09-09T02:08:20;100077.69;;;23.43;100.00
22872;BME280;11603;44.910;8.630;2022-09-09T02:13:46;100080.72;;;23.34;100.00
22872;BME280;11603;44.910;8.630;2022-09-09T02:19:14;100077.69;;;23.43;100.00
22872;BME280;11603;44.910;8.630;2022-09-09T02:22:00;100081.09;;;23.45;100.00
22872;BME280;11603;44.910;8.630;2022-09-09T02:24:29;100085.63;;;23.38;100.00
22872;BME280;11603;44.910;8.630;2022-09-09T02:27:09;100075.63;;;23.31;100.00
22872;BME280;11603;44.910;8.630;2022-09-09T02:29:39;100077.63;;;23.22;100.00
22872;BME280;11603;44.910;8.630;2022-09-09T02:32:09;100071.88;;;23.17;100.00
22872;BME280;11603;44.910;8.630;2022-09-09T02:34:42;100074.53;;;23.10;100.00
22872;BME280;11603;44.910;8.630;2022-09-09T02:37:09;100073.03;;;23.08;100.00
22872;BME280;11603;44.910;8.630;2022-09-09T02:39:38;100071.91;;;23.02;100.00
22872;BME280;11603;44.910;8.630;2022-09-09T02:42:06;100077.06;;;22.97;100.00
22872;BME280;11603;44.910;8.630;2022-09-09T02:44:32;100073.00;;;22.93;100.00
22872;BME280;11603;44.910;8.630;2022-09-09T02:47:06;100066.81;;;22.85;100.00
22872;BME280;11603;44.910;8.630;2022-09-09T02:58:09;100049.59;;;22.47;100.00
22872;BME280;11603;44.910;8.630;2022-09-09T03:00:38;100057.19;;;22.36;100.00
22872;BME280;11603;44.910;8.630;2022-09-09T03:03:06;100060.94;;;22.35;100.00
22872;BME280;11603;44.910;8.630;2022-09-09T03:05:34;100059.19;;;22.43;100.00
22872;BME280;11603;44.910;8.630;2022-09-09T03:08:02;100053.81;;;22.34;100.00
22872;BME280;11603;44.910;8.630;2022-09-09T03:10:28;100051.91;;;22.35;100.00
22872;BME280;11603;44.910;8.630;2022-09-09T03:12:54;100052.59;;;22.37;100.00
22872;BME280;11603;44.910;8.630;2022-09-09T03:15:21;100058.97;;;22.29;100.00
22872;BME280;11603;44.910;8.630;2022-09-09T03:17:46;100059.91;;;22.36;100.00
22872;BME280;11603;44.910;8.630;2022-09-09T03:20:12;100065.94;;;22.47;100.00
22872;BME280;11603;44.910;8.630;2022-09-09T03:22:38;100059.84;;;22.45;100.00
22872;BME280;11603;44.910;8.630;2022-09-09T03:25:04;100055.06;;;22.47;100.00
22872;BME280;11603;44.910;8.630;2022-09-09T03:27:32;100057.47;;;22.42;100.00
22872;BME280;11603;44.910;8.630;2022-09-09T03:29:58;100053.81;;;22.34;100.00
22872;BME280;11603;44.910;8.630;2022-09-09T03:32:24;100051.81;;;22.28;100.00
22872;BME280;11603;44.910;8.630;2022-09-09T03:34:52;100060.91;;;22.21;100.00
22872;BME280;11603;44.910;8.630;2022-09-09T03:37:19;100059.59;;;22.17;100.00
22872;BME280;11603;44.910;8.630;2022-09-09T03:39:45;100068.34;;;22.27;100.00
22872;BME280;11603;44.910;8.630;2022-09-09T03:42:13;100080.28;;;22.26;100.00
22872;BME280;11603;44.910;8.630;2022-09-09T03:44:47;100071.94;;;22.27;100.00
22872;BME280;11603;44.910;8.630;2022-09-09T03:47:20;100068.34;;;22.27;100.00
22872;BME280;11603;44.910;8.630;2022-09-09T03:49:48;100063.63;;;22.21;100.00
22872;BME280;11603;44.910;8.630;2022-09-09T03:52:14;100066.19;;;22.22;100.00
22872;BME280;11603;44.910;8.630;2022-09-09T03:54:40;100058.56;;;22.18;100.00
22872;BME280;11603;44.910;8.630;2022-09-09T03:57:09;100064.06;;;22.10;100.00
22872;BME280;11603;44.910;8.630;2022-09-09T03:59:35;100066.84;;;22.02;100.00
22872;BME280;11603;44.910;8.630;2022-09-09T04:02:03;100070.44;;;22.02;100.00
22872;BME280;11603;44.910;8.630;2022-09-09T04:04:28;100074.94;;;22.10;100.00
22872;BME280;11603;44.910;8.630;2022-09-09T04:06:54;100074.31;;;22.08;100.00
22872;BME280;11603;44.910;8.630;2022-09-09T04:09:20;100086.88;;;22.09;100.00
22872;BME280;11603;44.910;8.630;2022-09-09T04:11:47;100085.50;;;22.13;100.00
22872;BME280;11603;44.910;8.630;2022-09-09T04:14:14;100087.84;;;22.16;100.00
22872;BME280;11603;44.910;8.630;2022-09-09T04:16:39;100084.09;;;22.17;100.00
22872;BME280;11603;44.910;8.630;2022-09-09T04:19:11;100082.16;;;22.25;100.00
22872;BME280;11603;44.910;8.630;2022-09-09T04:21:41;100087.81;;;22.24;100.00
22872;BME280;11603;44.910;8.630;2022-09-09T04:24:07;100089.94;;;22.14;100.00
22872;BME280;11603;44.910;8.630;2022-09-09T04:26:34;100095.38;;;22.14;100.00
22872;BME280;11603;44.910;8.630;2022-09-09T04:29:02;100103.78;;;22.27;100.00
22872;BME280;11603;44.910;8.630;2022-09-09T04:31:28;100111.69;;;22.36;100.00
22872;BME280;11603;44.910;8.630;2022-09-09T04:33:55;100114.59;;;22.35;100.00
22872;BME280;11603;44.910;8.630;2022-09-09T04:36:21;100106.53;;;22.42;100.00
22872;BME280;11603;44.910;8.630;2022-09-09T04:38:49;100100.94;;;22.58;100.00
22872;BME280;11603;44.910;8.630;2022-09-09T04:41:15;100094.66;;;22.57;100.00
22872;BME280;11603;44.910;8.630;2022-09-09T04:43:43;100099.25;;;22.57;100.00
22872;BME280;11603;44.910;8.630;2022-09-09T04:46:09;100091.75;;;22.59;100.00
22872;BME280;11603;44.910;8.630;2022-09-09T04:48:34;100103.78;;;22.64;100.00
22872;BME280;11603;44.910;8.630;2022-09-09T04:51:04;100096.34;;;22.81;100.00
22872;BME280;11603;44.910;8.630;2022-09-09T04:53:32;100095.38;;;22.89;100.00
22872;BME280;11603;44.910;8.630;2022-09-09T04:56:11;100092.59;;;22.97;100.00
22872;BME280;11603;44.910;8.630;2022-09-09T04:58:41;100098.78;;;22.91;100.00
22872;BME280;11603;44.910;8.630;2022-09-09T05:01:10;100096.41;;;22.73;100.00
22872;BME280;11603;44.910;8.630;2022-09-09T05:03:39;100094.94;;;22.62;100.00
22872;BME280;11603;44.910;8.630;2022-09-09T05:06:10;100104.63;;;22.50;100.00
22872;BME280;11603;44.910;8.630;2022-09-09T05:08:37;100108.41;;;22.41;100.00
22872;BME280;11603;44.910;8.630;2022-09-09T05:11:11;100108.19;;;22.28;100.00
22872;BME280;11603;44.910;8.630;2022-09-09T05:13:37;100099.03;;;22.21;100.00
22872;BME280;11603;44.910;8.630;2022-09-09T05:16:03;100098.28;;;22.12;100.00
22872;BME280;11603;44.910;8.630;2022-09-09T05:18:28;100095.91;;;22.09;100.00
22872;BME280;11603;44.910;8.630;2022-09-09T05:20:59;100094.16;;;22.16;100.00
22872;BME280;11603;44.910;8.630;2022-09-09T05:23:26;100102.50;;;22.37;100.00
22872;BME280;11603;44.910;8.630;2022-09-09T05:25:59;100103.47;;;22.45;100.00
22872;BME280;11603;44.910;8.630;2022-09-09T05:28:26;100102.72;;;22.73;100.00
22872;BME280;11603;44.910;8.630;2022-09-09T05:31:00;100109.13;;;22.58;100.00
22872;BME280;11603;44.910;8.630;2022-09-09T05:33:27;100117.97;;;22.60;100.00
22872;BME280;11603;44.910;8.630;2022-09-09T05:35:57;100115.22;;;22.45;100.00
22872;BME280;11603;44.910;8.630;2022-09-09T05:38:23;100108.53;;;22.25;100.00
22872;BME280;11603;44.910;8.630;2022-09-09T05:40:52;100125.50;;;22.12;100.00
22872;BME280;11603;44.910;8.630;2022-09-09T05:43:19;100116.97;;;22.15;100.00
22872;BME280;11603;44.910;8.630;2022-09-09T05:45:46;100115.25;;;22.14;100.00
22872;BME280;11603;44.910;8.630;2022-09-09T05:48:16;100119.69;;;22.15;100.00
22872;BME280;11603;44.910;8.630;2022-09-09T05:50:42;100124.91;;;22.02;100.00
22872;BME280;11603;44.910;8.630;2022-09-09T05:53:09;100117.28;;;21.98;100.00
22872;BME280;11603;44.910;8.630;2022-09-09T05:55:36;100125.75;;;22.03;100.00
22872;BME280;11603;44.910;8.630;2022-09-09T05:58:02;100126.06;;;22.08;100.00
22872;BME280;11603;44.910;8.630;2022-09-09T06:00:28;100116.50;;;22.12;100.00
22872;BME280;11603;44.910;8.630;2022-09-09T06:02:57;100118.66;;;22.16;100.00
22872;BME280;11603;44.910;8.630;2022-09-09T06:05:22;100126.44;;;22.27;100.00
22872;BME280;11603;44.910;8.630;2022-09-09T06:07:52;100127.88;;;22.38;100.00
22872;BME280;11603;44.910;8.630;2022-09-09T06:10:17;100130.34;;;22.48;100.00
22872;BME280;11603;44.910;8.630;2022-09-09T06:12:44;100136.56;;;22.56;100.00
22872;BME280;11603;44.910;8.630;2022-09-09T06:15:11;100147.03;;;22.67;100.00
22872;BME280;11603;44.910;8.630;2022-09-09T06:17:36;100157.06;;;22.75;100.00
22872;BME280;11603;44.910;8.630;2022-09-09T06:20:02;100162.66;;;22.96;100.00
22872;BME280;11603;44.910;8.630;2022-09-09T06:22:31;100176.16;;;23.12;100.00
22872;BME280;11603;44.910;8.630;2022-09-09T06:24:58;100176.44;;;23.32;100.00
22872;BME280;11603;44.910;8.630;2022-09-09T06:27:27;100182.88;;;23.54;100.00
22872;BME280;11603;44.910;8.630;2022-09-09T06:29:53;100185.88;;;23.44;100.00
22872;BME280;11603;44.910;8.630;2022-09-09T06:32:19;100192.59;;;23.19;100.00
22872;BME280;11603;44.910;8.630;2022-09-09T06:34:44;100187.81;;;23.21;100.00
22872;BME280;11603;44.910;8.630;2022-09-09T06:37:10;100193.09;;;23.37;100.00
22872;BME280;11603;44.910;8.630;2022-09-09T06:39:41;100195.97;;;23.58;100.00
22872;BME280;11603;44.910;8.630;2022-09-09T06:42:07;100183.59;;;23.77;100.00
22872;BME280;11603;44.910;8.630;2022-09-09T06:44:49;100179.81;;;23.93;100.00
22872;BME280;11603;44.910;8.630;2022-09-09T06:47:22;100170.56;;;23.94;100.00
22872;BME280;11603;44.910;8.630;2022-09-09T06:49:48;100181.06;;;23.90;100.00
22872;BME280;11603;44.910;8.630;2022-09-09T06:52:13;100183.50;;;23.85;100.00
22872;BME280;11603;44.910;8.630;2022-09-09T06:54:39;100189.03;;;23.92;100.00
22872;BME280;11603;44.910;8.630;2022-09-09T06:57:05;100191.94;;;24.05;100.00
22872;BME280;11603;44.910;8.630;2022-09-09T06:59:33;100185.84;;;24.18;100.00
22872;BME280;11603;44.910;8.630;2022-09-09T07:01:58;100189.94;;;24.28;100.00
22872;BME280;11603;44.910;8.630;2022-09-09T07:04:24;100181.94;;;24.12;100.00
22872;BME280;11603;44.910;8.630;2022-09-09T07:06:50;100196.66;;;24.11;100.00
22872;BME280;11603;44.910;8.630;2022-09-09T07:09:21;100191.50;;;24.01;100.00
22872;BME280;11603;44.910;8.630;2022-09-09T07:11:50;100202.31;;;23.36;100.00
22872;BME280;11603;44.910;8.630;2022-09-09T07:14:20;100206.63;;;23.31;100.00
22872;BME280;11603;44.910;8.630;2022-09-09T07:16:52;100210.31;;;23.23;100.00
22872;BME280;11603;44.910;8.630;2022-09-09T07:19:18;100201.50;;;23.50;100.00
22872;BME280;11603;44.910;8.630;2022-09-09T07:21:46;100198.50;;;23.75;100.00
22872;BME280;11603;44.910;8.630;2022-09-09T07:24:15;100196.19;;;23.93;100.00
22872;BME280;11603;44.910;8.630;2022-09-09T07:26:43;100193.31;;;24.30;100.00
22872;BME280;11603;44.910;8.630;2022-09-09T07:29:10;100192.94;;;24.33;100.00
22872;BME280;11603;44.910;8.630;2022-09-09T07:31:39;100202.09;;;24.11;100.00
22872;BME280;11603;44.910;8.630;2022-09-09T07:34:10;100207.16;;;23.78;100.00
22872;BME280;11603;44.910;8.630;2022-09-09T07:36:37;100206.75;;;23.96;100.00
22872;BME280;11603;44.910;8.630;2022-09-09T07:39:07;100202.88;;;24.20;100.00
22872;BME280;11603;44.910;8.630;2022-09-09T07:41:36;100202.38;;;24.31;100.00
22872;BME280;11603;44.910;8.630;2022-09-09T07:44:08;100205.00;;;24.39;100.00
22872;BME280;11603;44.910;8.630;2022-09-09T07:46:37;100212.16;;;24.61;100.00
22872;BME280;11603;44.910;8.630;2022-09-09T07:49:08;100203.31;;;24.59;100.00
22872;BME280;11603;44.910;8.630;2022-09-09T07:51:36;100214.41;;;24.36;100.00
22872;BME280;11603;44.910;8.630;2022-09-09T07:54:04;100215.75;;;24.26;100.00
22872;BME280;11603;44.910;8.630;2022-09-09T07:56:32;100212.97;;;24.40;100.00
22872;BME280;11603;44.910;8.630;2022-09-09T07:58:58;100214.84;;;24.55;100.00
22872;BME280;11603;44.910;8.630;2022-09-09T08:01:30;100220.28;;;24.76;100.00
22872;BME280;11603;44.910;8.630;2022-09-09T08:03:58;100225.22;;;24.87;100.00
22872;BME280;11603;44.910;8.630;2022-09-09T08:06:26;100227.63;;;25.18;100.00
22872;BME280;11603;44.910;8.630;2022-09-09T08:08:53;100224.00;;;25.39;100.00
22872;BME280;11603;44.910;8.630;2022-09-09T08:11:23;100228.00;;;25.64;100.00
22872;BME280;11603;44.910;8.630;2022-09-09T08:13:50;100228.03;;;25.43;100.00
22872;BME280;11603;44.910;8.630;2022-09-09T08:16:21;100234.13;;;25.38;100.00
22872;BME280;11603;44.910;8.630;2022-09-09T08:18:51;100238.84;;;25.51;100.00
22872;BME280;11603;44.910;8.630;2022-09-09T08:21:23;100236.22;;;25.64;100.00
22872;BME280;11603;44.910;8.630;2022-09-09T08:23:52;100237.34;;;25.48;100.00
22872;BME280;11603;44.910;8.630;2022-09-09T08:26:21;100241.94;;;25.69;100.00
22872;BME280;11603;44.910;8.630;2022-09-09T08:28:50;100244.13;;;25.52;100.00
22872;BME280;11603;44.910;8.630;2022-09-09T08:32:05;100235.63;;;25.75;100.00
22872;BME280;11603;44.910;8.630;2022-09-09T08:34:08;100234.16;;;26.13;100.00
22872;BME280;11603;44.910;8.630;2022-09-09T08:36:38;100227.25;;;26.24;100.00
22872;BME280;11603;44.910;8.630;2022-09-09T08:39:06;100226.91;;;26.47;100.00
22872;BME280;11603;44.910;8.630;2022-09-09T08:49:44;100243.06;;;27.03;100.00
22872;BME280;11603;44.910;8.630;2022-09-09T08:52:37;100236.09;;;26.93;100.00
22872;BME280;11603;44.910;8.630;2022-09-09T08:58:12;100236.94;;;26.94;100.00
22872;BME280;11603;44.910;8.630;2022-09-09T09:03:51;100240.59;;;26.40;100.00
22872;BME280;11603;44.910;8.630;2022-09-09T09:11:48;100244.75;;;27.04;100.00
22872;BME280;11603;44.910;8.630;2022-09-09T09:14:21;100248.59;;;27.16;100.00
22872;BME280;11603;44.910;8.630;2022-09-09T09:16:53;100251.31;;;27.09;100.00
22872;BME280;11603;44.910;8.630;2022-09-09T09:19:20;100247.72;;;26.89;100.00
22872;BME280;11603;44.910;8.630;2022-09-09T09:24:48;100240.03;;;26.71;100.00
22872;BME280;11603;44.910;8.630;2022-09-09T09:27:33;100236.50;;;26.90;100.00
22872;BME280;11603;44.910;8.630;2022-09-09T09:30:20;100229.13;;;27.24;100.00
22872;BME280;11603;44.910;8.630;2022-09-09T09:32:58;100232.09;;;27.42;100.00
22872;BME280;11603;44.910;8.630;2022-09-09T09:35:25;100230.78;;;27.38;100.00
22872;BME280;11603;44.910;8.630;2022-09-09T09:37:51;100228.91;;;27.38;100.00
22872;BME280;11603;44.910;8.630;2022-09-09T09:40:19;100230.16;;;27.49;100.00
22872;BME280;11603;44.910;8.630;2022-09-09T09:42:55;100217.25;;;27.43;100.00
22872;BME280;11603;44.910;8.630;2022-09-09T09:45:55;100228.25;;;27.43;100.00
22872;BME280;11603;44.910;8.630;2022-09-09T09:48:24;100223.00;;;27.09;100.00
22872;BME280;11603;44.910;8.630;2022-09-09T09:50:53;100222.38;;;27.20;100.00
22872;BME280;11603;44.910;8.630;2022-09-09T09:58:27;100219.25;;;28.13;100.00
22872;BME280;11603;44.910;8.630;2022-09-09T10:00:57;100209.00;;;28.27;100.00
22872;BME280;11603;44.910;8.630;2022-09-09T10:03:28;100212.09;;;28.44;100.00
22872;BME280;11603;44.910;8.630;2022-09-09T10:05:56;100212.75;;;28.46;100.00
22872;BME280;11603;44.910;8.630;2022-09-09T10:08:24;100207.25;;;28.77;97.99
22872;BME280;11603;44.910;8.630;2022-09-09T10:19:02;100206.25;;;28.96;90.59
22872;BME280;11603;44.910;8.630;2022-09-09T10:21:52;100208.97;;;29.03;90.98
22872;BME280;11603;44.910;8.630;2022-09-09T10:32:36;100195.69;;;28.62;94.87
22872;BME280;11603;44.910;8.630;2022-09-09T10:49:05;100189.16;;;28.56;100.00
22872;BME280;11603;44.910;8.630;2022-09-09T10:56:57;100181.47;;;29.46;93.85
22872;BME280;11603;44.910;8.630;2022-09-09T10:59:27;100168.59;;;29.58;87.84
22872;BME280;11603;44.910;8.630;2022-09-09T11:02:12;100166.59;;;29.47;89.32
22872;BME280;11603;44.910;8.630;2022-09-09T11:04:43;100164.19;;;29.94;84.06
22872;BME280;11603;44.910;8.630;2022-09-09T11:07:13;100155.38;;;30.15;82.64
22872;BME280;11603;44.910;8.630;2022-09-09T11:09:44;100154.56;;;30.14;76.76
22872;BME280;11603;44.910;8.630;2022-09-09T11:12:18;100156.22;;;30.15;76.26
22872;BME280;11603;44.910;8.630;2022-09-09T11:14:57;100152.81;;;30.20;77.23
22872;BME280;11603;44.910;8.630;2022-09-09T11:17:33;100153.53;;;30.27;76.57
22872;BME280;11603;44.910;8.630;2022-09-09T11:20:05;100144.09;;;29.86;79.40
22872;BME280;11603;44.910;8.630;2022-09-09T11:22:37;100147.09;;;29.48;78.87
22872;BME280;11603;44.910;8.630;2022-09-09T11:28:22;100140.38;;;28.95;85.81
22872;BME280;11603;44.910;8.630;2022-09-09T11:41:50;100138.88;;;29.78;79.60
22872;BME280;11603;44.910;8.630;2022-09-09T11:44:28;100127.28;;;30.06;73.63
22872;BME280;11603;44.910;8.630;2022-09-09T11:46:55;100133.84;;;30.23;70.60
22872;BME280;11603;44.910;8.630;2022-09-09T11:51:53;100133.00;;;30.53;68.31
22872;BME280;11603;44.910;8.630;2022-09-09T11:54:33;100126.47;;;30.77;67.35
22872;BME280;11603;44.910;8.630;2022-09-09T11:57:34;100135.13;;;31.04;65.58
22872;BME280;11603;44.910;8.630;2022-09-09T12:00:00;100130.56;;;31.09;63.88
22872;BME280;11603;44.910;8.630;2022-09-09T12:02:28;100125.03;;;31.21;63.81
22872;BME280;11603;44.910;8.630;2022-09-09T12:05:06;100117.59;;;30.98;61.94
22872;BME280;11603;44.910;8.630;2022-09-09T12:10:23;100108.97;;;31.18;61.71
22872;BME280;11603;44.910;8.630;2022-09-09T12:12:51;100099.09;;;31.34;59.45
22872;BME280;11603;44.910;8.630;2022-09-09T12:15:23;100097.97;;;31.46;56.64
22872;BME280;11603;44.910;8.630;2022-09-09T12:17:51;100096.53;;;31.44;58.22
22872;BME280;11603;44.910;8.630;2022-09-09T12:20:22;100092.44;;;31.46;53.78
22872;BME280;11603;44.910;8.630;2022-09-09T12:26:21;100092.66;;;31.56;52.17
22872;BME280;11603;44.910;8.630;2022-09-09T12:31:10;100081.38;;;31.46;47.51
22872;BME280;11603;44.910;8.630;2022-09-09T12:33:44;100078.81;;;31.56;51.04
22872;BME280;11603;44.910;8.630;2022-09-09T12:36:16;100068.50;;;31.64;50.83
22872;BME280;11603;44.910;8.630;2022-09-09T12:38:43;100063.78;;;31.76;51.36
22872;BME280;11603;44.910;8.630;2022-09-09T12:41:38;100059.03;;;31.60;50.82
22872;BME280;11603;44.910;8.630;2022-09-09T12:44:05;100059.63;;;31.50;52.72
22872;BME280;11603;44.910;8.630;2022-09-09T12:46:45;100058.56;;;31.39;51.57
22872;BME280;11603;44.910;8.630;2022-09-09T12:49:40;100046.63;;;31.62;55.15
22872;BME280;11603;44.910;8.630;2022-09-09T12:52:15;100053.50;;;31.60;54.97
22872;BME280;11603;44.910;8.630;2022-09-09T12:54:44;100046.16;;;31.53;50.75
22872;BME280;11603;44.910;8.630;2022-09-09T12:57:16;100039.13;;;31.74;56.96
22872;BME280;11603;44.910;8.630;2022-09-09T12:59:43;100035.19;;;31.70;49.89
22872;BME280;11603;44.910;8.630;2022-09-09T13:02:31;100030.63;;;31.92;54.42
22872;BME280;11603;44.910;8.630;2022-09-09T13:05:08;100033.28;;;32.16;53.83
22872;BME280;11603;44.910;8.630;2022-09-09T13:07:38;100017.28;;;32.18;55.67
22872;BME280;11603;44.910;8.630;2022-09-09T13:10:04;100020.47;;;31.98;53.32
22872;BME280;11603;44.910;8.630;2022-09-09T13:12:30;100013.38;;;31.74;49.92
22872;BME280;11603;44.910;8.630;2022-09-09T13:14:56;100012.91;;;31.77;48.24
22872;BME280;11603;44.910;8.630;2022-09-09T13:17:26;100010.91;;;31.89;50.20
22872;BME280;11603;44.910;8.630;2022-09-09T13:19:57;100021.50;;;31.92;51.37
22872;BME280;11603;44.910;8.630;2022-09-09T13:22:30;100010.06;;;31.88;53.33
22872;BME280;11603;44.910;8.630;2022-09-09T13:27:40;100003.56;;;31.66;52.69
22872;BME280;11603;44.910;8.630;2022-09-09T13:30:39;99998.56;;;31.80;53.27
22872;BME280;11603;44.910;8.630;2022-09-09T13:35:35;99994.72;;;31.81;52.68
22872;BME280;11603;44.910;8.630;2022-09-09T13:38:14;99986.09;;;31.94;46.39
22872;BME280;11603;44.910;8.630;2022-09-09T13:40:40;99985.16;;;32.17;49.21
22872;BME280;11603;44.910;8.630;2022-09-09T13:43:17;99987.88;;;32.00;49.24
22872;BME280;11603;44.910;8.630;2022-09-09T13:45:56;99986.34;;;31.76;51.52
22872;BME280;11603;44.910;8.630;2022-09-09T13:48:22;99979.81;;;31.98;46.82
22872;BME280;11603;44.910;8.630;2022-09-09T13:50:56;99975.28;;;32.09;45.07
22872;BME280;11603;44.910;8.630;2022-09-09T13:53:21;99970.38;;;32.11;45.16
22872;BME280;11603;44.910;8.630;2022-09-09T13:55:47;99974.84;;;32.12;45.15
22872;BME280;11603;44.910;8.630;2022-09-09T13:58:16;99968.22;;;32.13;44.90
22872;BME280;11603;44.910;8.630;2022-09-09T14:00:44;99973.00;;;32.18;44.94
22872;BME280;11603;44.910;8.630;2022-09-09T14:03:10;99964.84;;;32.28;44.79
22872;BME280;11603;44.910;8.630;2022-09-09T14:05:35;99962.94;;;32.28;47.92
22872;BME280;11603;44.910;8.630;2022-09-09T14:08:03;99959.31;;;32.28;45.35
22872;BME280;11603;44.910;8.630;2022-09-09T14:10:29;99953.78;;;32.28;45.81
22872;BME280;11603;44.910;8.630;2022-09-09T14:12:55;99947.88;;;32.41;44.39
22872;BME280;11603;44.910;8.630;2022-09-09T14:15:21;99946.28;;;32.45;44.57
22872;BME280;11603;44.910;8.630;2022-09-09T14:17:47;99952.84;;;32.39;44.02
22872;BME280;11603;44.910;8.630;2022-09-09T14:20:14;99933.56;;;32.44;43.98
22872;BME280;11603;44.910;8.630;2022-09-09T14:22:40;99938.50;;;32.42;44.13
22872;BME280;11603;44.910;8.630;2022-09-09T14:25:06;99940.41;;;32.58;45.07
22872;BME280;11603;44.910;8.630;2022-09-09T14:27:32;99935.19;;;32.62;43.90
22872;BME280;11603;44.910;8.630;2022-09-09T14:29:59;99932.69;;;32.60;43.26
22872;BME280;11603;44.910;8.630;2022-09-09T14:32:26;99937.47;;;32.48;44.12
22872;BME280;11603;44.910;8.630;2022-09-09T14:34:52;99939.69;;;32.13;44.39
22872;BME280;11603;44.910;8.630;2022-09-09T14:37:17;99939.28;;;32.21;44.09
22872;BME280;11603;44.910;8.630;2022-09-09T14:39:43;99933.78;;;32.43;43.76
22872;BME280;11603;44.910;8.630;2022-09-09T14:42:12;99936.91;;;31.96;45.96
22872;BME280;11603;44.910;8.630;2022-09-09T14:44:38;99944.72;;;31.42;48.25
22872;BME280;11603;44.910;8.630;2022-09-09T14:47:07;99944.75;;;30.91;50.21
22872;BME280;11603;44.910;8.630;2022-09-09T14:49:37;99946.31;;;30.87;50.83
22872;BME280;11603;44.910;8.630;2022-09-09T14:52:03;99934.78;;;30.78;50.97
22872;BME280;11603;44.910;8.630;2022-09-09T14:54:29;99943.13;;;30.55;51.59
22872;BME280;11603;44.910;8.630;2022-09-09T14:56:55;99944.66;;;30.39;54.05
22872;BME280;11603;44.910;8.630;2022-09-09T14:59:22;99954.81;;;30.15;53.59
22872;BME280;11603;44.910;8.630;2022-09-09T15:01:47;99945.84;;;30.08;53.82
22872;BME280;11603;44.910;8.630;2022-09-09T15:04:13;99950.66;;;30.24;54.54
22872;BME280;11603;44.910;8.630;2022-09-09T15:06:42;99931.56;;;30.81;52.67
22872;BME280;11603;44.910;8.630;2022-09-09T15:09:10;99931.72;;;31.14;51.34
22872;BME280;11603;44.910;8.630;2022-09-09T15:11:37;99935.13;;;31.45;50.92